createdAt,value
2023-05-17T00:02:25.053Z,1.10
2023-05-17T00:04:53.408Z,1.03
2023-05-17T00:07:20.256Z,1.30
2023-05-17T00:09:46.954Z,1.60
2023-05-17T00:12:13.784Z,0.87
2023-05-17T00:14:40.660Z,1.30
2023-05-17T00:17:07.404Z,0.70
2023-05-17T00:19:34.182Z,1.03
2023-05-17T00:22:01.048Z,1.17
2023-05-17T00:24:27.834Z,0.80
2023-05-17T00:26:54.578Z,0.97
2023-05-17T00:29:21.264Z,1.03
2023-05-17T00:31:47.962Z,1.23
2023-05-17T00:34:14.648Z,1.30
2023-05-17T00:36:41.354Z,0.90
2023-05-17T00:39:08.032Z,0.80
2023-05-17T00:41:34.788Z,1.40
2023-05-17T00:44:01.492Z,0.80
2023-05-17T00:46:28.222Z,0.83
2023-05-17T00:48:54.996Z,1.10
2023-05-17T00:51:22.063Z,1.00
2023-05-17T00:53:48.929Z,2.83
2023-05-17T00:56:16.023Z,0.70
2023-05-17T00:58:42.985Z,1.00
2023-05-17T01:01:09.813Z,0.97
2023-05-17T01:03:36.643Z,1.57
2023-05-17T01:06:03.851Z,1.77
2023-05-17T01:08:30.687Z,1.20
2023-05-17T01:11:18.614Z,0.90
2023-05-17T01:14:18.718Z,1.10
2023-05-17T01:17:07.188Z,0.90
2023-05-17T01:20:06.660Z,1.00
2023-05-17T01:22:37.304Z,1.53
2023-05-17T01:25:12.360Z,1.77
2023-05-17T01:27:41.826Z,1.63
2023-05-17T01:30:11.059Z,1.27
2023-05-17T01:32:40.811Z,1.00
2023-05-17T01:35:08.134Z,1.07
2023-05-17T01:37:34.904Z,1.03
2023-05-17T01:40:42.965Z,1.30
2023-05-17T01:43:26.426Z,1.00
2023-05-17T01:46:14.519Z,1.27
2023-05-17T01:49:01.319Z,1.23
2023-05-17T01:51:31.742Z,1.07
2023-05-17T01:54:10.155Z,1.38
2023-05-17T01:56:44.787Z,0.97
2023-05-17T01:59:21.681Z,2.50
2023-05-17T02:01:48.926Z,1.87
2023-05-17T02:04:15.875Z,1.30
2023-05-17T02:06:42.740Z,1.10
2023-05-17T02:09:09.699Z,1.00
2023-05-17T02:11:37.119Z,1.00
2023-05-17T02:21:39.730Z,1.50
2023-05-17T02:24:06.943Z,1.50
2023-05-17T02:26:33.822Z,0.90
2023-05-17T02:29:01.132Z,1.10
2023-05-17T02:31:28.205Z,0.80
2023-05-17T02:33:58.303Z,1.40
2023-05-17T02:36:25.136Z,1.13
2023-05-17T02:38:52.065Z,0.80
2023-05-17T02:41:22.068Z,1.03
2023-05-17T02:43:50.589Z,1.80
2023-05-17T02:46:18.501Z,1.80
2023-05-17T02:48:51.512Z,1.27
2023-05-17T02:51:21.427Z,1.07
2023-05-17T02:53:54.092Z,0.90
2023-05-17T02:56:21.381Z,1.17
2023-05-17T02:58:50.499Z,1.63
2023-05-17T03:01:17.516Z,1.20
2023-05-17T03:03:44.561Z,2.00
2023-05-17T03:06:12.596Z,2.27
2023-05-17T03:08:40.451Z,0.90
2023-05-17T03:11:07.912Z,1.43
2023-05-17T03:13:37.808Z,1.07
2023-05-17T03:16:04.911Z,1.63
2023-05-17T03:18:31.974Z,1.10
2023-05-17T03:20:58.883Z,1.00
2023-05-17T03:23:25.808Z,1.20
2023-05-17T03:25:52.560Z,1.57
2023-05-17T03:28:19.470Z,0.93
2023-05-17T03:30:47.307Z,0.80
2023-05-17T03:33:14.197Z,1.00
2023-05-17T03:35:41.603Z,1.53
2023-05-17T03:38:10.269Z,0.90
2023-05-17T03:40:37.051Z,1.20
2023-05-17T03:43:04.463Z,1.37
2023-05-17T03:45:31.318Z,2.20
2023-05-17T03:47:58.259Z,1.20
2023-05-17T03:50:25.019Z,1.57
2023-05-17T03:52:58.807Z,1.20
2023-05-17T03:55:28.971Z,1.30
2023-05-17T03:57:55.891Z,1.63
2023-05-17T04:00:24.478Z,1.30
2023-05-17T04:02:52.125Z,1.40
2023-05-17T04:05:23.281Z,2.10
2023-05-17T04:07:50.274Z,1.20
2023-05-17T04:10:27.394Z,1.33
2023-05-17T04:12:55.921Z,1.88
2023-05-17T04:15:25.377Z,2.03
2023-05-17T04:17:52.461Z,1.13
2023-05-17T04:20:19.924Z,2.27
2023-05-17T04:22:46.705Z,1.40
2023-05-17T04:25:15.671Z,1.07
2023-05-17T04:27:43.459Z,1.27
2023-05-17T04:30:10.839Z,1.47
2023-05-17T04:32:37.686Z,1.47
2023-05-17T04:35:05.446Z,1.80
2023-05-17T04:37:32.945Z,1.60
2023-05-17T04:39:59.863Z,1.57
2023-05-17T04:42:27.060Z,1.37
2023-05-17T04:44:55.019Z,0.90
2023-05-17T04:47:21.969Z,1.20
2023-05-17T04:49:53.057Z,1.47
2023-05-17T04:52:23.908Z,1.20
2023-05-17T04:54:52.370Z,1.30
2023-05-17T04:57:20.492Z,1.50
2023-05-17T04:59:47.669Z,2.23
2023-05-17T05:02:17.908Z,1.90
2023-05-17T05:04:44.964Z,2.40
2023-05-17T05:07:12.100Z,2.23
2023-05-17T05:09:39.297Z,1.50
2023-05-17T05:12:06.886Z,1.13
2023-05-17T05:14:33.716Z,1.20
2023-05-17T05:17:01.458Z,3.50
2023-05-17T05:19:28.316Z,1.00
2023-05-17T05:21:55.103Z,1.30
2023-05-17T05:24:21.927Z,1.57
2023-05-17T05:26:49.530Z,3.43
2023-05-17T05:29:19.171Z,1.30
2023-05-17T05:31:46.427Z,1.20
2023-05-17T05:34:14.243Z,1.23
2023-05-17T05:36:41.241Z,1.00
2023-05-17T05:39:09.235Z,1.20
2023-05-17T05:41:36.193Z,1.30
2023-05-17T05:44:02.989Z,1.87
2023-05-17T05:46:29.789Z,1.27
2023-05-17T05:48:57.837Z,1.20
2023-05-17T05:51:24.671Z,2.13
2023-05-17T05:53:51.582Z,1.00
2023-05-17T05:56:18.942Z,1.37
2023-05-17T05:58:45.879Z,1.93
2023-05-17T06:01:16.052Z,1.03
2023-05-17T06:03:42.979Z,0.90
2023-05-17T06:06:10.433Z,0.90
2023-05-17T06:08:42.076Z,2.20
2023-05-17T06:11:08.886Z,1.10
2023-05-17T06:13:38.258Z,1.30
2023-05-17T06:16:06.453Z,1.00
2023-05-17T06:18:33.755Z,1.20
2023-05-17T06:21:00.661Z,1.00
2023-05-17T06:23:28.209Z,1.50
2023-05-17T06:25:55.296Z,2.50
2023-05-17T06:28:22.158Z,2.47
2023-05-17T06:30:50.399Z,1.60
2023-05-17T06:33:17.989Z,2.47
2023-05-17T06:35:55.675Z,1.80
2023-05-17T06:38:33.227Z,2.07
2023-05-17T06:41:00.025Z,3.23
2023-05-17T06:43:26.889Z,1.40
2023-05-17T06:45:56.784Z,1.90
2023-05-17T06:48:26.812Z,1.27
2023-05-17T06:50:53.703Z,1.43
2023-05-17T06:53:20.842Z,3.33
2023-05-17T06:55:47.691Z,1.63
2023-05-17T06:58:14.489Z,1.70
2023-05-17T07:00:45.290Z,2.93
2023-05-17T07:03:15.981Z,2.10
2023-05-17T07:05:47.743Z,2.60
2023-05-17T07:08:15.623Z,1.93
2023-05-17T07:10:42.495Z,2.03
2023-05-17T07:13:12.407Z,1.63
2023-05-17T07:15:39.160Z,3.63
2023-05-17T07:18:09.249Z,2.50
2023-05-17T07:20:37.107Z,1.77
2023-05-17T07:23:03.920Z,3.13
2023-05-17T07:25:32.037Z,2.20
2023-05-17T07:27:58.700Z,2.17
2023-05-17T07:30:25.673Z,1.87
2023-05-17T07:32:53.183Z,2.63
2023-05-17T07:35:21.683Z,1.60
2023-05-17T07:37:48.807Z,3.03
2023-05-17T07:40:15.577Z,2.23
2023-05-17T07:42:42.244Z,5.20
2023-05-17T07:45:09.484Z,2.90
2023-05-17T07:47:36.307Z,2.30
2023-05-17T07:50:04.288Z,3.00
2023-05-17T07:52:30.956Z,1.90
2023-05-17T07:54:57.605Z,2.03
2023-05-17T07:57:24.278Z,2.20
2023-05-17T07:59:51.216Z,3.53
2023-05-17T08:02:17.866Z,4.40
2023-05-17T08:04:45.260Z,3.00
2023-05-17T08:07:12.003Z,3.77
2023-05-17T08:09:40.144Z,3.23
2023-05-17T08:12:07.447Z,2.90
2023-05-17T08:14:34.103Z,2.37
2023-05-17T08:17:00.868Z,4.40
2023-05-17T08:19:28.370Z,2.67
2023-05-17T08:21:55.236Z,4.03
2023-05-17T08:24:21.892Z,4.30
2023-05-17T08:26:48.552Z,3.33
2023-05-17T08:29:15.232Z,2.37
2023-05-17T08:31:41.960Z,3.20
2023-05-17T08:34:08.713Z,3.77
2023-05-17T08:36:35.531Z,2.40
2023-05-17T08:39:02.452Z,4.83
2023-05-17T08:41:31.747Z,5.20
2023-05-17T08:43:59.080Z,3.73
2023-05-17T08:46:26.733Z,5.40
2023-05-17T08:48:59.867Z,4.07
2023-05-17T08:51:27.070Z,3.70
2023-05-17T08:53:54.359Z,2.97
2023-05-17T08:56:21.512Z,2.33
2023-05-17T08:58:57.153Z,2.23
2023-05-17T09:01:26.741Z,2.13
2023-05-17T09:03:54.463Z,6.67
2023-05-17T09:06:22.635Z,3.23
2023-05-17T09:08:54.650Z,4.23
2023-05-17T09:11:29.805Z,2.60
2023-05-17T09:14:01.090Z,3.03
2023-05-17T09:16:31.871Z,3.30
2023-05-17T09:18:59.210Z,7.33
2023-05-17T09:21:29.788Z,1.93
2023-05-17T09:24:06.226Z,3.30
2023-05-17T09:26:40.377Z,3.13
2023-05-17T09:29:11.909Z,3.77
2023-05-17T09:31:39.650Z,3.00
2023-05-17T09:34:09.628Z,2.43
2023-05-17T09:36:37.695Z,2.67
2023-05-17T09:39:06.155Z,3.17
2023-05-17T09:41:40.184Z,4.70
2023-05-17T09:44:09.620Z,3.37
2023-05-17T09:46:38.914Z,3.90
2023-05-17T09:49:08.351Z,2.80
2023-05-17T09:51:47.058Z,3.13
2023-05-17T09:54:19.593Z,2.83
2023-05-17T09:56:53.554Z,2.70
2023-05-17T09:59:20.558Z,3.50
2023-05-17T10:01:50.189Z,3.43
2023-05-17T10:04:20.638Z,3.17
2023-05-17T10:06:51.647Z,3.37
2023-05-17T10:09:22.217Z,2.40
2023-05-17T10:11:49.003Z,2.67
2023-05-17T10:14:28.815Z,3.57
2023-05-17T10:16:56.288Z,2.27
2023-05-17T10:19:24.441Z,2.40
2023-05-17T10:21:52.353Z,3.73
2023-05-17T10:24:21.537Z,2.50
2023-05-17T10:26:50.474Z,3.20
2023-05-17T10:29:17.198Z,3.17
2023-05-17T10:31:44.264Z,2.70
2023-05-17T10:34:12.001Z,3.47
2023-05-17T10:36:38.944Z,3.53
2023-05-17T10:39:07.957Z,3.80
2023-05-17T10:41:35.433Z,2.60
2023-05-17T10:44:07.869Z,3.53
2023-05-17T10:46:36.217Z,3.27
2023-05-17T10:49:03.268Z,3.00
2023-05-17T10:51:36.525Z,3.00
2023-05-17T10:54:10.976Z,3.10
2023-05-17T10:56:55.912Z,4.93
2023-05-17T10:59:29.694Z,3.37
2023-05-17T11:02:03.371Z,3.70
2023-05-17T11:04:36.674Z,3.37
2023-05-17T11:07:19.106Z,2.80
2023-05-17T11:09:48.561Z,2.73
2023-05-17T11:12:15.832Z,3.63
2023-05-17T11:14:45.754Z,4.40
2023-05-17T11:17:17.745Z,2.83
2023-05-17T11:20:28.070Z,2.40
2023-05-17T11:23:04.725Z,3.20
2023-05-17T11:25:35.570Z,2.77
2023-05-17T11:28:22.941Z,3.47
2023-05-17T11:30:53.582Z,2.97
2023-05-17T11:33:32.759Z,2.60
2023-05-17T11:36:06.863Z,3.80
2023-05-17T11:38:34.709Z,3.07
2023-05-17T11:43:49.271Z,2.83
2023-05-17T11:46:21.221Z,3.03
2023-05-17T11:48:53.917Z,3.60
2023-05-17T11:51:24.940Z,2.50
2023-05-17T11:53:56.048Z,2.43
2023-05-17T11:56:39.502Z,3.33
2023-05-17T11:59:10.252Z,3.13
2023-05-17T12:01:46.987Z,4.47
2023-05-17T12:04:13.969Z,3.53
2023-05-17T12:06:42.616Z,2.37
2023-05-17T12:09:11.242Z,3.17
2023-05-17T12:11:40.785Z,3.07
2023-05-17T12:14:07.794Z,4.20
2023-05-17T12:16:36.538Z,4.10
2023-05-17T12:19:04.222Z,2.43
2023-05-17T12:21:31.944Z,2.53
2023-05-17T12:23:58.650Z,2.60
2023-05-17T12:26:26.184Z,3.47
2023-05-17T12:28:58.068Z,2.87
2023-05-17T12:31:37.623Z,2.53
2023-05-17T12:34:09.824Z,2.97
2023-05-17T12:36:39.677Z,2.60
2023-05-17T12:39:09.747Z,3.70
2023-05-17T12:41:39.110Z,3.67
2023-05-17T12:44:15.465Z,2.60
2023-05-17T12:46:43.834Z,4.13
2023-05-17T12:49:12.071Z,4.90
2023-05-17T12:51:43.382Z,2.57
2023-05-17T12:54:31.062Z,3.23
2023-05-17T12:56:57.903Z,2.17
2023-05-17T13:02:13.783Z,2.37
2023-05-17T13:04:41.220Z,2.77
2023-05-17T13:14:14.531Z,3.50
2023-05-17T13:16:59.351Z,3.73
2023-05-17T13:19:52.702Z,3.30
2023-05-17T13:22:49.547Z,3.33
2023-05-17T13:25:39.088Z,3.87
2023-05-17T13:28:10.953Z,4.10
2023-05-17T13:36:54.928Z,3.30
2023-05-17T13:39:32.198Z,2.70
2023-05-17T13:42:10.461Z,2.90
2023-05-17T13:44:44.049Z,3.13
2023-05-17T13:47:16.776Z,2.43
2023-05-17T13:52:32.167Z,3.63
2023-05-17T13:55:22.095Z,3.27
2023-05-17T13:57:51.554Z,4.13
2023-05-17T14:00:24.380Z,2.43
2023-05-17T14:03:02.429Z,3.17
2023-05-17T14:05:39.641Z,2.67
2023-05-17T14:08:10.116Z,2.77
2023-05-17T14:10:40.052Z,3.00
2023-05-17T14:13:14.386Z,4.73
2023-05-17T14:16:05.083Z,3.27
2023-05-17T14:19:37.293Z,3.57
2023-05-17T14:21:54.290Z,3.40
2023-05-17T14:24:31.204Z,2.77
2023-05-17T14:27:00.670Z,2.63
2023-05-17T14:29:35.224Z,3.70
2023-05-17T14:32:15.513Z,2.93
2023-05-17T14:35:08.207Z,3.50
2023-05-17T14:40:38.613Z,2.60
2023-05-17T14:43:09.398Z,2.60
2023-05-17T14:45:44.422Z,2.57
2023-05-17T14:48:28.297Z,2.73
2023-05-17T14:51:01.045Z,2.57
2023-05-17T14:53:39.478Z,2.23
2023-05-17T14:56:18.786Z,2.83
2023-05-17T14:58:47.535Z,3.53
2023-05-17T15:01:29.097Z,2.43
2023-05-17T15:04:15.610Z,2.40
2023-05-17T15:06:53.731Z,2.67
2023-05-17T15:09:32.111Z,2.50
2023-05-17T15:11:59.355Z,2.67
2023-05-17T15:14:58.163Z,3.10
2023-05-17T15:18:28.980Z,3.67
2023-05-17T15:20:59.259Z,3.53
2023-05-17T15:23:47.607Z,2.50
2023-05-17T15:26:49.860Z,2.50
2023-05-17T15:29:28.118Z,2.63
2023-05-17T15:32:13.848Z,2.47
2023-05-17T15:34:49.271Z,2.73
2023-05-17T15:40:16.127Z,3.27
2023-05-17T15:43:04.812Z,2.63
2023-05-17T15:45:45.498Z,2.80
2023-05-17T15:54:59.595Z,2.37
2023-05-17T15:57:38.212Z,2.83
2023-05-17T16:00:08.527Z,2.47
2023-05-17T16:02:41.913Z,2.33
2023-05-17T16:05:32.582Z,2.63
2023-05-17T16:08:12.692Z,2.43
2023-05-17T16:11:00.328Z,2.13
2023-05-17T16:14:11.154Z,2.90
2023-05-17T16:17:15.770Z,2.80
2023-05-17T16:20:02.070Z,2.80
2023-05-17T16:22:45.185Z,2.20
2023-05-17T16:25:27.814Z,3.00
2023-05-17T16:27:57.706Z,3.80
2023-05-17T16:30:41.647Z,2.30
2023-05-17T16:33:33.297Z,2.47
2023-05-17T16:36:05.569Z,2.40
2023-05-17T16:39:01.642Z,2.63
2023-05-17T16:41:44.276Z,3.60
2023-05-17T16:44:14.353Z,3.67
2023-05-17T16:46:50.834Z,2.47
2023-05-17T16:49:25.271Z,2.50
2023-05-17T16:51:54.890Z,2.47
2023-05-17T16:54:38.062Z,2.70
2023-05-17T16:57:19.509Z,2.87
2023-05-17T16:59:54.390Z,2.77
2023-05-17T17:02:32.054Z,3.00
2023-05-17T17:05:07.579Z,2.27
2023-05-17T17:07:37.264Z,3.30
2023-05-17T17:10:12.495Z,3.07
2023-05-17T17:13:15.455Z,2.70
2023-05-17T17:15:44.677Z,3.50
2023-05-17T17:18:16.987Z,4.13
2023-05-17T17:20:57.132Z,2.90
2023-05-17T17:23:35.140Z,2.40
2023-05-17T17:26:16.200Z,2.70
2023-05-17T17:28:48.951Z,2.20
2023-05-17T17:31:22.542Z,3.30
2023-05-17T17:33:54.276Z,2.57
2023-05-17T17:36:39.127Z,2.50
2023-05-17T17:39:15.528Z,2.93
2023-05-17T17:41:48.017Z,2.33
2023-05-17T17:47:17.975Z,2.20
2023-05-17T17:49:50.918Z,2.30
2023-05-17T17:52:25.244Z,2.30
2023-05-17T17:57:36.397Z,2.67
2023-05-17T18:00:11.976Z,2.30
2023-05-17T18:02:55.714Z,2.53
2023-05-17T18:05:34.586Z,2.67
2023-05-17T18:08:21.935Z,2.10
2023-05-17T18:10:56.903Z,2.47
2023-05-17T18:16:30.925Z,2.70
2023-05-17T18:21:54.850Z,2.67
2023-05-17T18:24:44.547Z,2.30
2023-05-17T18:27:25.623Z,2.47
2023-05-17T18:30:09.880Z,2.77
2023-05-17T18:32:39.633Z,3.00
2023-05-17T18:35:17.285Z,2.60
2023-05-17T18:37:49.822Z,2.67
2023-05-17T18:40:22.384Z,2.37
2023-05-17T18:43:05.650Z,3.60
2023-05-17T18:45:42.171Z,3.10
2023-05-17T18:51:18.171Z,2.83
2023-05-17T18:54:00.219Z,2.30
2023-05-17T18:56:29.960Z,2.53
2023-05-17T18:59:25.387Z,2.37
2023-05-17T19:01:58.245Z,3.53
2023-05-17T19:04:29.245Z,2.57
2023-05-17T19:07:08.605Z,4.37
2023-05-17T19:09:46.471Z,2.30
2023-05-17T19:12:18.021Z,2.83
2023-05-17T19:14:53.587Z,2.53
2023-05-17T19:17:32.080Z,4.67
2023-05-17T19:20:10.658Z,2.63
2023-05-17T19:22:45.080Z,2.57
2023-05-17T19:25:31.503Z,2.83
2023-05-17T19:28:12.314Z,3.10
2023-05-17T19:30:41.762Z,3.17
2023-05-17T19:33:12.033Z,2.87
2023-05-17T19:35:46.350Z,2.87
2023-05-17T19:38:20.542Z,2.67
2023-05-17T19:40:51.803Z,2.80
2023-05-17T19:43:32.987Z,2.97
2023-05-17T19:46:12.888Z,2.60
2023-05-17T19:49:13.255Z,2.73
2023-05-17T19:52:00.818Z,2.73
2023-05-17T19:54:31.541Z,2.93
2023-05-17T19:57:03.659Z,2.87
2023-05-17T19:59:41.518Z,2.80
2023-05-17T20:02:11.351Z,3.20
2023-05-17T20:04:48.355Z,3.00
2023-05-17T20:07:19.313Z,3.47
2023-05-17T20:09:49.191Z,3.97
2023-05-17T20:12:20.120Z,3.03
2023-05-17T20:14:53.596Z,2.90
2023-05-17T20:17:24.015Z,3.57
2023-05-17T20:20:01.733Z,3.80
2023-05-17T20:22:34.338Z,3.63
2023-05-17T20:25:08.763Z,3.33
2023-05-17T20:27:49.758Z,3.67
2023-05-17T20:30:18.948Z,3.17
2023-05-17T20:32:59.426Z,3.27
2023-05-17T20:35:26.491Z,3.90
2023-05-17T20:38:05.544Z,4.47
2023-05-17T20:40:51.060Z,3.60
2023-05-17T20:43:31.455Z,3.43
2023-05-17T20:46:12.183Z,4.73
2023-05-17T20:48:48.554Z,4.17
2023-05-17T20:51:23.310Z,3.60
2023-05-17T20:54:01.767Z,3.73
2023-05-17T20:56:31.071Z,3.83
2023-05-17T20:59:25.711Z,3.80
2023-05-17T21:02:09.485Z,3.30
2023-05-17T21:04:43.401Z,5.03
2023-05-17T21:07:13.844Z,4.47
2023-05-17T21:10:13.235Z,4.73
2023-05-17T21:12:54.727Z,4.27
2023-05-17T21:15:27.567Z,4.30
2023-05-17T21:17:58.486Z,4.43
2023-05-17T21:20:37.165Z,4.63
2023-05-17T21:23:17.347Z,4.67
2023-05-17T21:28:39.854Z,4.93
2023-05-17T21:31:08.298Z,4.87
2023-05-17T21:33:35.327Z,5.23
2023-05-17T21:36:20.808Z,4.60
2023-05-17T21:39:03.780Z,4.17
2023-05-17T21:41:47.469Z,4.83
2023-05-17T21:44:40.450Z,4.43
2023-05-17T21:47:36.397Z,5.10
2023-05-17T21:53:01.556Z,4.63
2023-05-17T21:55:41.004Z,4.57
2023-05-17T21:58:16.262Z,4.70
2023-05-17T22:00:46.975Z,4.17
2023-05-17T22:03:14.280Z,4.50
2023-05-17T22:05:40.991Z,3.97
2023-05-17T22:08:07.723Z,7.03
2023-05-17T22:10:34.413Z,3.90
2023-05-17T22:13:02.206Z,5.07
2023-05-17T22:15:28.837Z,4.37
2023-05-17T22:17:55.596Z,5.77
2023-05-17T22:20:23.778Z,4.70
2023-05-17T22:22:50.776Z,4.30
2023-05-17T22:25:17.856Z,4.93
2023-05-17T22:27:45.497Z,4.17
2023-05-17T22:30:12.433Z,3.73
2023-05-17T22:32:40.249Z,4.20
2023-05-17T22:35:07.354Z,4.27
2023-05-17T22:37:34.090Z,4.50
2023-05-17T22:40:00.968Z,5.87
2023-05-17T22:42:27.625Z,4.23
2023-05-17T22:44:54.398Z,4.13
2023-05-17T22:47:22.898Z,4.23
2023-05-17T22:49:52.524Z,4.40
2023-05-17T22:52:19.797Z,5.03
2023-05-17T22:54:46.627Z,3.87
2023-05-17T22:57:13.280Z,4.20
2023-05-17T22:59:39.971Z,5.97
2023-05-17T23:02:06.765Z,4.63
2023-05-17T23:04:33.492Z,4.03
2023-05-17T23:07:02.079Z,5.30
2023-05-17T23:09:33.403Z,4.93
2023-05-17T23:12:06.331Z,4.43
2023-05-17T23:14:34.122Z,4.30
2023-05-17T23:17:02.048Z,4.30
2023-05-17T23:19:29.634Z,5.07
2023-05-17T23:21:56.734Z,4.43
2023-05-17T23:24:25.741Z,4.10
2023-05-17T23:26:52.749Z,4.07
2023-05-17T23:29:19.975Z,4.97
2023-05-17T23:31:48.126Z,4.23
2023-05-17T23:34:15.301Z,6.40
2023-05-17T23:36:42.025Z,5.00
2023-05-17T23:39:09.095Z,5.40
2023-05-17T23:41:37.738Z,4.30
2023-05-17T23:44:05.613Z,4.20
2023-05-17T23:46:33.101Z,4.87
2023-05-17T23:48:59.839Z,4.40
2023-05-17T23:51:26.506Z,4.47
2023-05-17T23:53:53.159Z,4.77
2023-05-17T23:56:19.869Z,3.77
2023-05-17T23:58:46.951Z,4.17
